sensor_id;sensor_type;location;lat;lon;timestamp;pressure;altitude;pressure_sealevel;temperature;humidity
36354;BME280;22383;51.114;13.666;2023-07-16T00:00:16;69686.84;;;22.53;100.00
36354;BME280;22383;51.114;13.666;2023-07-16T00:02:50;69677.59;;;22.52;100.00
36354;BME280;22383;51.114;13.666;2023-07-16T00:05:18;69687.41;;;22.54;100.00
36354;BME280;22383;51.114;13.666;2023-07-16T00:07:45;69681.84;;;22.51;100.00
36354;BME280;22383;51.114;13.666;2023-07-16T00:10:13;69675.00;;;22.45;100.00
36354;BME280;22383;51.114;13.666;2023-07-16T00:12:40;69669.03;;;22.44;100.00
36354;BME280;22383;51.114;13.666;2023-07-16T00:15:08;69656.09;;;22.28;100.00
36354;BME280;22383;51.114;13.666;2023-07-16T00:17:35;69624.09;;;21.99;100.00
36354;BME280;22383;51.114;13.666;2023-07-16T00:20:03;69616.50;;;21.90;100.00
36354;BME280;22383;51.114;13.666;2023-07-16T00:22:31;69584.97;;;21.69;100.00
36354;BME280;22383;51.114;13.666;2023-07-16T00:24:59;69540.56;;;21.48;100.00
36354;BME280;22383;51.114;13.666;2023-07-16T00:27:27;69558.91;;;21.41;100.00
36354;BME280;22383;51.114;13.666;2023-07-16T00:29:54;69546.50;;;21.32;100.00
36354;BME280;22383;51.114;13.666;2023-07-16T00:32:22;69544.63;;;21.28;100.00
36354;BME280;22383;51.114;13.666;2023-07-16T00:34:49;69541.78;;;21.25;100.00
36354;BME280;22383;51.114;13.666;2023-07-16T00:37:16;69546.75;;;21.27;100.00
36354;BME280;22383;51.114;13.666;2023-07-16T00:39:43;69547.16;;;21.25;100.00
36354;BME280;22383;51.114;13.666;2023-07-16T00:42:11;69542.91;;;21.26;100.00
36354;BME280;22383;51.114;13.666;2023-07-16T00:44:38;69544.63;;;21.28;100.00
36354;BME280;22383;51.114;13.666;2023-07-16T00:47:06;69538.50;;;21.25;100.00
36354;BME280;22383;51.114;13.666;2023-07-16T00:49:37;69545.19;;;21.28;100.00
36354;BME280;22383;51.114;13.666;2023-07-16T00:52:06;69544.78;;;21.30;100.00
36354;BME280;22383;51.114;13.666;2023-07-16T00:54:35;69555.31;;;21.35;100.00
36354;BME280;22383;51.114;13.666;2023-07-16T00:57:02;69554.16;;;21.34;100.00
36354;BME280;22383;51.114;13.666;2023-07-16T00:59:30;69550.50;;;21.36;100.00
36354;BME280;22383;51.114;13.666;2023-07-16T01:01:58;69557.75;;;21.40;100.00
36354;BME280;22383;51.114;13.666;2023-07-16T01:04:28;69567.91;;;21.46;100.00
36354;BME280;22383;51.114;13.666;2023-07-16T01:06:57;69572.81;;;21.56;100.00
36354;BME280;22383;51.114;13.666;2023-07-16T01:09:27;69577.38;;;21.60;100.00
36354;BME280;22383;51.114;13.666;2023-07-16T01:11:56;69576.41;;;21.61;100.00
36354;BME280;22383;51.114;13.666;2023-07-16T01:14:25;69586.19;;;21.63;100.00
36354;BME280;22383;51.114;13.666;2023-07-16T01:16:52;69588.88;;;21.63;100.00
36354;BME280;22383;51.114;13.666;2023-07-16T01:19:26;69584.81;;;21.66;100.00
36354;BME280;22383;51.114;13.666;2023-07-16T01:30:08;69561.56;;;21.48;100.00
36354;BME280;22383;51.114;13.666;2023-07-16T01:32:37;69557.19;;;21.39;100.00
36354;BME280;22383;51.114;13.666;2023-07-16T01:35:06;69536.06;;;21.20;100.00
36354;BME280;22383;51.114;13.666;2023-07-16T01:37:35;69517.59;;;21.01;100.00
36354;BME280;22383;51.114;13.666;2023-07-16T01:40:02;69494.19;;;20.80;100.00
36354;BME280;22383;51.114;13.666;2023-07-16T01:42:30;69470.53;;;20.64;100.00
36354;BME280;22383;51.114;13.666;2023-07-16T01:44:57;69457.59;;;20.47;100.00
36354;BME280;22383;51.114;13.666;2023-07-16T01:49:56;69425.06;;;20.18;100.00
36354;BME280;22383;51.114;13.666;2023-07-16T01:52:23;69412.50;;;20.07;100.00
36354;BME280;22383;51.114;13.666;2023-07-16T01:54:50;69398.56;;;19.99;100.00
36354;BME280;22383;51.114;13.666;2023-07-16T01:57:21;69393.25;;;19.92;100.00
36354;BME280;22383;51.114;13.666;2023-07-16T01:59:48;69393.81;;;19.92;100.00
36354;BME280;22383;51.114;13.666;2023-07-16T02:02:16;69369.09;;;19.68;100.00
36354;BME280;22383;51.114;13.666;2023-07-16T02:04:44;69349.84;;;19.53;100.00
36354;BME280;22383;51.114;13.666;2023-07-16T02:07:12;69341.28;;;19.45;100.00
36354;BME280;22383;51.114;13.666;2023-07-16T02:09:39;69335.03;;;19.39;100.00
36354;BME280;22383;51.114;13.666;2023-07-16T02:12:07;69319.63;;;19.25;100.00
36354;BME280;22383;51.114;13.666;2023-07-16T02:14:35;69298.50;;;19.06;100.00
36354;BME280;22383;51.114;13.666;2023-07-16T02:17:02;69283.09;;;18.93;100.00
36354;BME280;22383;51.114;13.666;2023-07-16T02:19:30;69283.66;;;18.93;100.00
36354;BME280;22383;51.114;13.666;2023-07-16T02:21:58;69269.94;;;18.81;100.00
36354;BME280;22383;51.114;13.666;2023-07-16T02:24:27;69274.38;;;18.82;100.00
36354;BME280;22383;51.114;13.666;2023-07-16T02:26:55;69284.81;;;18.94;100.00
36354;BME280;22383;51.114;13.666;2023-07-16T02:29:22;69293.13;;;19.06;100.00
36354;BME280;22383;51.114;13.666;2023-07-16T02:31:50;69309.50;;;19.19;100.00
36354;BME280;22383;51.114;13.666;2023-07-16T02:34:18;69310.66;;;19.20;100.00
36354;BME280;22383;51.114;13.666;2023-07-16T02:36:45;69306.66;;;19.16;100.00
36354;BME280;22383;51.114;13.666;2023-07-16T02:39:13;69303.81;;;19.14;100.00
36354;BME280;22383;51.114;13.666;2023-07-16T02:45:11;69303.47;;;19.08;100.00
36354;BME280;22383;51.114;13.666;2023-07-16T02:47:43;69290.50;;;18.99;100.00
36354;BME280;22383;51.114;13.666;2023-07-16T02:50:11;69270.53;;;18.81;100.00
36354;BME280;22383;51.114;13.666;2023-07-16T02:52:39;69231.50;;;18.51;100.00
36354;BME280;22383;51.114;13.666;2023-07-16T02:55:16;69226.22;;;18.44;100.00
36354;BME280;22383;51.114;13.666;2023-07-16T02:57:44;69230.59;;;18.45;100.00
36354;BME280;22383;51.114;13.666;2023-07-16T03:00:11;69242.56;;;18.56;100.00
36354;BME280;22383;51.114;13.666;2023-07-16T03:02:39;69240.84;;;18.55;100.00
36354;BME280;22383;51.114;13.666;2023-07-16T03:05:09;69237.63;;;18.54;100.00
36354;BME280;22383;51.114;13.666;2023-07-16T03:07:38;69238.97;;;18.50;100.00
36354;BME280;22383;51.114;13.666;2023-07-16T03:10:06;69247.72;;;18.61;100.00
36354;BME280;22383;51.114;13.666;2023-07-16T03:12:34;69261.81;;;18.71;100.00
36354;BME280;22383;51.114;13.666;2023-07-16T03:15:02;69269.22;;;18.78;100.00
36354;BME280;22383;51.114;13.666;2023-07-16T03:17:30;69279.66;;;18.89;100.00
36354;BME280;22383;51.114;13.666;2023-07-16T03:19:58;69266.13;;;18.80;100.00
36354;BME280;22383;51.114;13.666;2023-07-16T03:22:31;69273.97;;;18.84;100.00
36354;BME280;22383;51.114;13.666;2023-07-16T03:26:07;69274.88;;;18.90;100.00
36354;BME280;22383;51.114;13.666;2023-07-16T03:28:34;69284.97;;;18.97;100.00
36354;BME280;22383;51.114;13.666;2023-07-16T03:31:05;69272.28;;;18.83;100.00
36354;BME280;22383;51.114;13.666;2023-07-16T03:33:35;69268.63;;;18.77;100.00
36354;BME280;22383;51.114;13.666;2023-07-16T03:36:03;69262.56;;;18.74;100.00
36354;BME280;22383;51.114;13.666;2023-07-16T03:38:30;69259.28;;;18.74;100.00
36354;BME280;22383;51.114;13.666;2023-07-16T03:40:58;69257.97;;;18.70;100.00
36354;BME280;22383;51.114;13.666;2023-07-16T03:43:25;69256.44;;;18.71;100.00
36354;BME280;22383;51.114;13.666;2023-07-16T03:45:58;69240.69;;;18.52;100.00
36354;BME280;22383;51.114;13.666;2023-07-16T03:48:25;69247.72;;;18.61;100.00
36354;BME280;22383;51.114;13.666;2023-07-16T03:50:52;69251.53;;;18.62;100.00
36354;BME280;22383;51.114;13.666;2023-07-16T03:53:20;69223.78;;;18.39;100.00
36354;BME280;22383;51.114;13.666;2023-07-16T03:55:47;69216.34;;;18.32;100.00
36354;BME280;22383;51.114;13.666;2023-07-16T03:58:15;69224.91;;;18.40;100.00
36354;BME280;22383;51.114;13.666;2023-07-16T04:00:44;69221.47;;;18.37;100.00
36354;BME280;22383;51.114;13.666;2023-07-16T04:03:11;69226.44;;;18.39;100.00
36354;BME280;22383;51.114;13.666;2023-07-16T04:05:38;69195.25;;;18.38;100.00
36354;BME280;22383;51.114;13.666;2023-07-16T04:08:06;69223.19;;;18.39;100.00
36354;BME280;22383;51.114;13.666;2023-07-16T04:10:35;69225.09;;;18.43;100.00
36354;BME280;22383;51.114;13.666;2023-07-16T04:13:02;69236.13;;;18.48;100.00
36354;BME280;22383;51.114;13.666;2023-07-16T04:15:29;69236.31;;;18.50;100.00
36354;BME280;22383;51.114;13.666;2023-07-16T04:17:56;69244.47;;;18.60;100.00
36354;BME280;22383;51.114;13.666;2023-07-16T04:20:23;69246.19;;;18.62;100.00
36354;BME280;22383;51.114;13.666;2023-07-16T04:22:51;69257.97;;;18.70;100.00
36354;BME280;22383;51.114;13.666;2023-07-16T04:25:18;69262.72;;;18.77;100.00
36354;BME280;22383;51.114;13.666;2023-07-16T04:27:45;69284.97;;;18.97;100.00
36354;BME280;22383;51.114;13.666;2023-07-16T04:30:12;69282.69;;;18.95;100.00
36354;BME280;22383;51.114;13.666;2023-07-16T04:32:40;69277.00;;;18.89;100.00
36354;BME280;22383;51.114;13.666;2023-07-16T04:35:07;69270.72;;;18.84;100.00
36354;BME280;22383;51.114;13.666;2023-07-16T04:37:34;69273.97;;;18.84;100.00
36354;BME280;22383;51.114;13.666;2023-07-16T04:40:01;69268.03;;;18.84;100.00
36354;BME280;22383;51.114;13.666;2023-07-16T04:42:29;69268.44;;;18.82;100.00
36354;BME280;22383;51.114;13.666;2023-07-16T04:44:57;69269.00;;;18.82;100.00
36354;BME280;22383;51.114;13.666;2023-07-16T04:47:24;69281.38;;;18.91;100.00
36354;BME280;22383;51.114;13.666;2023-07-16T04:49:51;69280.41;;;18.93;100.00
36354;BME280;22383;51.114;13.666;2023-07-16T04:52:18;69279.66;;;18.89;100.00
36354;BME280;22383;51.114;13.666;2023-07-16T04:54:45;69273.97;;;18.84;100.00
36354;BME280;22383;51.114;13.666;2023-07-16T04:57:12;69275.69;;;18.86;100.00
36354;BME280;22383;51.114;13.666;2023-07-16T04:59:39;69262.88;;;18.79;100.00
36354;BME280;22383;51.114;13.666;2023-07-16T05:02:06;69266.53;;;18.78;100.00
36354;BME280;22383;51.114;13.666;2023-07-16T05:04:34;69264.03;;;18.80;100.00
36354;BME280;22383;51.114;13.666;2023-07-16T05:07:02;69264.81;;;18.76;100.00
36354;BME280;22383;51.114;13.666;2023-07-16T05:09:29;69261.00;;;18.75;100.00
36354;BME280;22383;51.114;13.666;2023-07-16T05:11:57;69260.84;;;18.73;100.00
36354;BME280;22383;51.114;13.666;2023-07-16T05:14:26;69255.28;;;18.70;100.00
36354;BME280;22383;51.114;13.666;2023-07-16T05:16:53;69259.13;;;18.71;100.00
36354;BME280;22383;51.114;13.666;2023-07-16T05:19:20;69248.22;;;18.68;100.00
36354;BME280;22383;51.114;13.666;2023-07-16T05:21:47;69267.50;;;18.76;100.00
36354;BME280;22383;51.114;13.666;2023-07-16T05:24:14;69261.56;;;18.76;100.00
36354;BME280;22383;51.114;13.666;2023-07-16T05:26:41;69286.13;;;18.98;100.00
36354;BME280;22383;51.114;13.666;2023-07-16T05:29:09;69270.34;;;18.79;100.00
36354;BME280;22383;51.114;13.666;2023-07-16T05:31:36;69271.13;;;18.82;100.00
36354;BME280;22383;51.114;13.666;2023-07-16T05:34:04;69288.25;;;18.97;100.00
36354;BME280;22383;51.114;13.666;2023-07-16T05:36:31;69280.97;;;18.93;100.00
36354;BME280;22383;51.114;13.666;2023-07-16T05:38:58;69280.81;;;18.91;100.00
36354;BME280;22383;51.114;13.666;2023-07-16T05:41:25;69280.00;;;18.95;100.00
36354;BME280;22383;51.114;13.666;2023-07-16T05:43:52;69303.06;;;19.11;100.00
36354;BME280;22383;51.114;13.666;2023-07-16T05:46:19;69291.66;;;19.00;100.00
36354;BME280;22383;51.114;13.666;2023-07-16T05:48:47;69309.72;;;19.14;100.00
36354;BME280;22383;51.114;13.666;2023-07-16T05:51:14;69306.25;;;19.18;100.00
36354;BME280;22383;51.114;13.666;2023-07-16T05:53:41;69307.22;;;19.17;100.00
36354;BME280;22383;51.114;13.666;2023-07-16T05:56:08;69318.88;;;19.22;100.00
36354;BME280;22383;51.114;13.666;2023-07-16T05:58:35;69317.09;;;19.28;100.00
36354;BME280;22383;51.114;13.666;2023-07-16T06:01:02;69362.41;;;19.64;100.00
36354;BME280;22383;51.114;13.666;2023-07-16T06:03:29;69381.84;;;19.81;100.00
36354;BME280;22383;51.114;13.666;2023-07-16T06:05:56;69356.88;;;19.61;100.00
36354;BME280;22383;51.114;13.666;2023-07-16T06:08:23;69346.03;;;19.52;100.00
36354;BME280;22383;51.114;13.666;2023-07-16T06:22:22;69397.59;;;20.00;100.00
36354;BME280;22383;51.114;13.666;2023-07-16T06:24:49;69382.75;;;19.87;100.00
36354;BME280;22383;51.114;13.666;2023-07-16T06:34:20;69470.75;;;20.59;100.00
36354;BME280;22383;51.114;13.666;2023-07-16T06:36:47;69497.19;;;20.85;100.00
36354;BME280;22383;51.114;13.666;2023-07-16T06:43:08;69557.91;;;21.42;100.00
36354;BME280;22383;51.114;13.666;2023-07-16T07:01:54;69623.66;;;22.01;100.00
36354;BME280;22383;51.114;13.666;2023-07-16T07:04:22;69631.09;;;22.08;100.00
36354;BME280;22383;51.114;13.666;2023-07-16T07:06:49;69644.81;;;22.20;100.00
36354;BME280;22383;51.114;13.666;2023-07-16T07:13:16;69646.53;;;22.22;100.00
36354;BME280;22383;51.114;13.666;2023-07-16T07:15:43;69646.97;;;22.20;100.00
36354;BME280;22383;51.114;13.666;2023-07-16T07:18:21;69659.13;;;22.33;100.00
36354;BME280;22383;51.114;13.666;2023-07-16T07:32:19;69614.78;;;21.88;100.00
36354;BME280;22383;51.114;13.666;2023-07-16T07:42:48;69708.91;;;22.78;100.00
36354;BME280;22383;51.114;13.666;2023-07-16T07:53:12;69640.25;;;22.16;100.00
36354;BME280;22383;51.114;13.666;2023-07-16T07:55:53;69595.25;;;21.78;100.00
36354;BME280;22383;51.114;13.666;2023-07-16T08:02:43;69596.41;;;21.79;100.00
36354;BME280;22383;51.114;13.666;2023-07-16T08:08:04;69652.50;;;22.22;100.00
36354;BME280;22383;51.114;13.666;2023-07-16T08:10:31;69641.06;;;22.12;100.00
36354;BME280;22383;51.114;13.666;2023-07-16T08:29:07;69698.19;;;22.71;100.00
36354;BME280;22383;51.114;13.666;2023-07-16T08:39:38;69629.94;;;22.07;100.00
36354;BME280;22383;51.114;13.666;2023-07-16T08:42:13;69619.66;;;21.98;100.00
36354;BME280;22383;51.114;13.666;2023-07-16T08:48:45;69643.69;;;22.19;100.00
36354;BME280;22383;51.114;13.666;2023-07-16T09:11:14;69856.97;;;24.08;100.00
36354;BME280;22383;51.114;13.666;2023-07-16T09:13:44;69868.97;;;24.19;100.00
36354;BME280;22383;51.114;13.666;2023-07-16T09:16:11;69848.94;;;24.01;100.00
36354;BME280;22383;51.114;13.666;2023-07-16T09:18:39;69816.88;;;23.72;100.00
36354;BME280;22383;51.114;13.666;2023-07-16T09:29:08;69770.69;;;23.33;100.00
36354;BME280;22383;51.114;13.666;2023-07-16T09:31:35;69750.66;;;23.15;100.00
36354;BME280;22383;51.114;13.666;2023-07-16T09:40:55;69760.97;;;23.25;100.00
36354;BME280;22383;51.114;13.666;2023-07-16T09:43:26;69753.13;;;23.20;100.00
36354;BME280;22383;51.114;13.666;2023-07-16T09:45:53;69792.44;;;23.53;100.00
36354;BME280;22383;51.114;13.666;2023-07-16T09:48:23;69811.16;;;23.67;100.00
36354;BME280;22383;51.114;13.666;2023-07-16T09:50:55;69851.22;;;24.03;100.00
36354;BME280;22383;51.114;13.666;2023-07-16T09:53:23;69835.94;;;23.92;100.00
36354;BME280;22383;51.114;13.666;2023-07-16T09:55:54;69816.47;;;23.74;100.00
36354;BME280;22383;51.114;13.666;2023-07-16T09:58:22;69807.31;;;23.66;100.00
36354;BME280;22383;51.114;13.666;2023-07-16T10:00:50;69795.28;;;23.55;100.00
36354;BME280;22383;51.114;13.666;2023-07-16T10:03:17;69816.88;;;23.72;100.00
36354;BME280;22383;51.114;13.666;2023-07-16T10:05:44;69828.22;;;24.07;100.00
36354;BME280;22383;51.114;13.666;2023-07-16T10:08:15;69825.06;;;23.82;100.00
36354;BME280;22383;51.114;13.666;2023-07-16T10:10:47;69866.13;;;24.16;100.00
36354;BME280;22383;51.114;13.666;2023-07-16T10:13:21;69870.13;;;24.20;100.00
36354;BME280;22383;51.114;13.666;2023-07-16T10:15:55;69842.41;;;24.00;100.00
36354;BME280;22383;51.114;13.666;2023-07-16T10:18:49;69829.06;;;23.86;100.00
36354;BME280;22383;51.114;13.666;2023-07-16T10:21:23;69903.50;;;24.52;100.00
36354;BME280;22383;51.114;13.666;2023-07-16T10:23:58;69921.44;;;24.71;100.00
36354;BME280;22383;51.114;13.666;2023-07-16T10:33:19;69989.44;;;25.29;91.12
36354;BME280;22383;51.114;13.666;2023-07-16T10:35:56;69994.59;;;25.34;89.79
36354;BME280;22383;51.114;13.666;2023-07-16T10:38:23;70020.56;;;25.60;93.36
36354;BME280;22383;51.114;13.666;2023-07-16T10:40:51;70060.50;;;25.93;89.38
36354;BME280;22383;51.114;13.666;2023-07-16T10:43:20;70044.72;;;26.01;82.30
36354;BME280;22383;51.114;13.666;2023-07-16T10:45:50;70036.28;;;25.69;82.35
36354;BME280;22383;51.114;13.666;2023-07-16T10:48:17;69995.16;;;25.35;78.42
36354;BME280;22383;51.114;13.666;2023-07-16T10:50:44;69986.41;;;25.24;81.20
36354;BME280;22383;51.114;13.666;2023-07-16T10:53:11;69998.78;;;25.40;83.07
36354;BME280;22383;51.114;13.666;2023-07-16T10:55:41;70007.78;;;25.46;84.22
36354;BME280;22383;51.114;13.666;2023-07-16T11:01:08;70042.16;;;25.77;84.25
36354;BME280;22383;51.114;13.666;2023-07-16T11:03:36;70048.63;;;25.85;79.54
36354;BME280;22383;51.114;13.666;2023-07-16T11:06:06;70049.78;;;25.86;80.57
36354;BME280;22383;51.114;13.666;2023-07-16T11:08:34;70062.63;;;25.93;82.55
36354;BME280;22383;51.114;13.666;2023-07-16T11:11:02;70030.41;;;25.61;80.12
36354;BME280;22383;51.114;13.666;2023-07-16T11:13:31;69992.56;;;25.54;80.60
36354;BME280;22383;51.114;13.666;2023-07-16T11:16:08;69979.53;;;25.18;76.09
36354;BME280;22383;51.114;13.666;2023-07-16T11:18:35;69951.63;;;24.96;77.77
36354;BME280;22383;51.114;13.666;2023-07-16T11:21:03;69928.16;;;24.75;79.04
36354;BME280;22383;51.114;13.666;2023-07-16T11:23:34;69917.84;;;24.65;80.92
36354;BME280;22383;51.114;13.666;2023-07-16T11:26:04;69908.09;;;24.57;82.05
36354;BME280;22383;51.114;13.666;2023-07-16T11:28:41;69895.31;;;24.43;84.35
36354;BME280;22383;51.114;13.666;2023-07-16T11:31:15;69896.47;;;24.44;85.91
36354;BME280;22383;51.114;13.666;2023-07-16T11:33:43;69944.19;;;24.89;89.84
36354;BME280;22383;51.114;13.666;2023-07-16T11:36:11;69979.94;;;25.16;85.78
36354;BME280;22383;51.114;13.666;2023-07-16T11:38:39;69980.84;;;25.22;85.50
36354;BME280;22383;51.114;13.666;2023-07-16T11:41:06;69996.31;;;25.36;86.10
36354;BME280;22383;51.114;13.666;2023-07-16T11:43:36;69979.69;;;25.21;84.57
36354;BME280;22383;51.114;13.666;2023-07-16T11:46:05;69931.00;;;24.77;85.80
36354;BME280;22383;51.114;13.666;2023-07-16T11:48:42;69944.75;;;24.89;86.11
36354;BME280;22383;51.114;13.666;2023-07-16T11:51:09;69899.47;;;24.49;87.03
36354;BME280;22383;51.114;13.666;2023-07-16T11:53:36;69886.91;;;24.38;90.30
36354;BME280;22383;51.114;13.666;2023-07-16T11:56:06;69869.16;;;24.22;87.36
36354;BME280;22383;51.114;13.666;2023-07-16T11:58:33;69879.63;;;24.33;88.84
36354;BME280;22383;51.114;13.666;2023-07-16T12:01:01;69876.59;;;24.28;89.61
36354;BME280;22383;51.114;13.666;2023-07-16T12:03:29;69867.13;;;24.42;89.92
36354;BME280;22383;51.114;13.666;2023-07-16T12:09:57;69967.22;;;25.12;93.75
36354;BME280;22383;51.114;13.666;2023-07-16T12:12:23;70045.03;;;25.79;89.82
36354;BME280;22383;51.114;13.666;2023-07-16T12:14:56;70074.84;;;26.06;87.18
36354;BME280;22383;51.114;13.666;2023-07-16T12:21:20;70045.88;;;26.02;82.00
36354;BME280;22383;51.114;13.666;2023-07-16T12:23:47;70096.06;;;26.25;83.17
36354;BME280;22383;51.114;13.666;2023-07-16T12:26:14;70117.97;;;26.47;83.38
36354;BME280;22383;51.114;13.666;2023-07-16T12:28:41;70121.50;;;26.70;81.43
36354;BME280;22383;51.114;13.666;2023-07-16T12:49:22;70186.09;;;27.06;81.45
36354;BME280;22383;51.114;13.666;2023-07-16T12:51:50;70132.97;;;26.80;78.19
36354;BME280;22383;51.114;13.666;2023-07-16T12:54:17;70125.13;;;26.49;81.33
36354;BME280;22383;51.114;13.666;2023-07-16T12:56:44;70083.44;;;26.14;80.09
36354;BME280;22383;51.114;13.666;2023-07-16T12:59:11;70060.09;;;25.95;83.67
36354;BME280;22383;51.114;13.666;2023-07-16T13:01:39;70076.16;;;26.10;83.17
36354;BME280;22383;51.114;13.666;2023-07-16T13:04:06;70084.16;;;26.17;82.11
36354;BME280;22383;51.114;13.666;2023-07-16T13:06:34;70059.91;;;25.93;83.98
36354;BME280;22383;51.114;13.666;2023-07-16T13:09:02;70030.94;;;25.89;82.69
36354;BME280;22383;51.114;13.666;2023-07-16T13:11:29;70091.31;;;26.18;88.91
36354;BME280;22383;51.114;13.666;2023-07-16T13:13:56;70111.53;;;26.39;81.08
36354;BME280;22383;51.114;13.666;2023-07-16T13:16:23;70155.84;;;26.81;77.84
36354;BME280;22383;51.114;13.666;2023-07-16T13:18:56;70167.38;;;27.11;78.54
36354;BME280;22383;51.114;13.666;2023-07-16T13:29:45;70201.00;;;27.19;72.43
36354;BME280;22383;51.114;13.666;2023-07-16T13:41:24;70235.28;;;27.47;69.25
36354;BME280;22383;51.114;13.666;2023-07-16T13:43:51;70250.78;;;27.61;71.29
36354;BME280;22383;51.114;13.666;2023-07-16T13:46:20;70264.69;;;27.76;67.70
36354;BME280;22383;51.114;13.666;2023-07-16T13:48:47;70275.00;;;27.85;70.54
36354;BME280;22383;51.114;13.666;2023-07-16T13:51:22;70256.88;;;27.91;69.06
36354;BME280;22383;51.114;13.666;2023-07-16T13:58:41;70209.03;;;27.26;67.94
36354;BME280;22383;51.114;13.666;2023-07-16T14:01:09;70221.66;;;27.38;68.63
36354;BME280;22383;51.114;13.666;2023-07-16T14:03:43;70247.06;;;27.63;70.69
36354;BME280;22383;51.114;13.666;2023-07-16T14:06:11;70254.38;;;27.67;67.06
36354;BME280;22383;51.114;13.666;2023-07-16T14:08:40;70269.72;;;27.78;66.31
36354;BME280;22383;51.114;13.666;2023-07-16T14:11:07;70282.50;;;27.92;65.67
36354;BME280;22383;51.114;13.666;2023-07-16T14:13:35;70239.03;;;27.56;66.87
36354;BME280;22383;51.114;13.666;2023-07-16T14:16:02;70241.91;;;27.58;66.87
36354;BME280;22383;51.114;13.666;2023-07-16T14:18:32;70228.69;;;27.46;63.78
36354;BME280;22383;51.114;13.666;2023-07-16T14:20:59;70226.47;;;27.64;64.23
36354;BME280;22383;51.114;13.666;2023-07-16T14:23:28;70276.31;;;27.89;64.96
36354;BME280;22383;51.114;13.666;2023-07-16T14:25:55;70278.47;;;27.88;62.59
36354;BME280;22383;51.114;13.666;2023-07-16T14:28:22;70235.06;;;27.71;61.20
36354;BME280;22383;51.114;13.666;2023-07-16T14:30:49;70270.84;;;27.79;63.03
36354;BME280;22383;51.114;13.666;2023-07-16T14:33:16;70259.53;;;27.71;63.91
36354;BME280;22383;51.114;13.666;2023-07-16T14:35:44;70265.25;;;27.77;61.02
36354;BME280;22383;51.114;13.666;2023-07-16T14:38:11;70247.13;;;27.82;61.25
36354;BME280;22383;51.114;13.666;2023-07-16T14:40:38;70273.28;;;27.84;60.80
36354;BME280;22383;51.114;13.666;2023-07-16T14:43:08;70240.00;;;27.54;59.26
36354;BME280;22383;51.114;13.666;2023-07-16T14:54:30;70260.25;;;27.75;56.56
36354;BME280;22383;51.114;13.666;2023-07-16T14:56:57;70233.16;;;27.48;56.49
36354;BME280;22383;51.114;13.666;2023-07-16T14:59:24;70227.41;;;27.43;58.18
36354;BME280;22383;51.114;13.666;2023-07-16T15:01:51;70229.69;;;27.45;58.25
36354;BME280;22383;51.114;13.666;2023-07-16T15:04:21;70232.72;;;27.50;60.11
36354;BME280;22383;51.114;13.666;2023-07-16T15:06:49;70229.69;;;27.45;58.09
36354;BME280;22383;51.114;13.666;2023-07-16T15:09:18;70234.88;;;27.49;59.85
36354;BME280;22383;51.114;13.666;2023-07-16T15:11:45;70204.09;;;27.44;58.05
36354;BME280;22383;51.114;13.666;2023-07-16T15:14:12;70254.38;;;27.67;58.44
36354;BME280;22383;51.114;13.666;2023-07-16T15:16:39;70261.41;;;27.76;58.17
36354;BME280;22383;51.114;13.666;2023-07-16T15:19:07;70295.53;;;28.01;60.00
36354;BME280;22383;51.114;13.666;2023-07-16T15:21:35;70305.59;;;28.15;60.77
36354;BME280;22383;51.114;13.666;2023-07-16T15:24:06;70272.28;;;27.85;58.79
36354;BME280;22383;51.114;13.666;2023-07-16T15:26:33;70264.56;;;27.73;59.42
36354;BME280;22383;51.114;13.666;2023-07-16T15:29:00;70268.41;;;27.75;60.67
36354;BME280;22383;51.114;13.666;2023-07-16T15:31:27;70244.19;;;27.60;59.43
36354;BME280;22383;51.114;13.666;2023-07-16T15:33:56;70246.47;;;27.62;60.21
36354;BME280;22383;51.114;13.666;2023-07-16T15:36:27;70250.50;;;27.66;61.00
36354;BME280;22383;51.114;13.666;2023-07-16T15:38:54;70247.63;;;27.63;59.03
36354;BME280;22383;51.114;13.666;2023-07-16T15:41:22;70213.25;;;27.52;60.10
36354;BME280;22383;51.114;13.666;2023-07-16T15:43:52;70232.00;;;27.47;59.71
36354;BME280;22383;51.114;13.666;2023-07-16T15:46:19;70235.59;;;27.52;59.52
36354;BME280;22383;51.114;13.666;2023-07-16T15:48:46;70219.00;;;27.57;58.81
36354;BME280;22383;51.114;13.666;2023-07-16T15:51:14;70248.06;;;27.61;59.81
36354;BME280;22383;51.114;13.666;2023-07-16T15:53:42;70246.91;;;27.60;58.77
36354;BME280;22383;51.114;13.666;2023-07-16T15:56:10;70262.41;;;27.74;59.62
36354;BME280;22383;51.114;13.666;2023-07-16T15:58:37;70233.72;;;27.48;58.85
36354;BME280;22383;51.114;13.666;2023-07-16T16:01:06;70221.09;;;27.37;59.94
36354;BME280;22383;51.114;13.666;2023-07-16T16:03:34;70216.50;;;27.33;60.91
36354;BME280;22383;51.114;13.666;2023-07-16T16:06:01;70225.13;;;27.41;61.42
36354;BME280;22383;51.114;13.666;2023-07-16T16:08:28;70213.88;;;27.26;59.99
36354;BME280;22383;51.114;13.666;2023-07-16T16:10:56;70200.41;;;27.19;61.45
36354;BME280;22383;51.114;13.666;2023-07-16T16:13:23;70198.00;;;27.14;60.48
36354;BME280;22383;51.114;13.666;2023-07-16T16:15:51;70196.97;;;27.15;61.19
36354;BME280;22383;51.114;13.666;2023-07-16T16:18:19;70194.94;;;27.35;61.81
36354;BME280;22383;51.114;13.666;2023-07-16T16:20:50;70216.50;;;27.33;59.30
36354;BME280;22383;51.114;13.666;2023-07-16T16:23:18;70229.84;;;27.47;60.22
36354;BME280;22383;51.114;13.666;2023-07-16T16:25:45;70217.50;;;27.31;59.83
36354;BME280;22383;51.114;13.666;2023-07-16T16:28:14;70186.31;;;27.28;59.09
36354;BME280;22383;51.114;13.666;2023-07-16T16:30:42;70204.44;;;27.22;59.09